Time;durP1;ratioP1;P1;durP2;ratioP2;P2;SDS_P1;SDS_P2;PMS_P1;PMS_P2;Temp;Humidity;BMP_temperature;BMP_pressure;BME280_temperature;BME280_humidity;BME280_pressure;Samples;Min_cycle;Max_cycle;Signal;HPM_P1;HPM_P2
2021/09/25 00:00:31;;;;;;;9.48;4.95;;;409.70;2278.40;;;;;;5016880;28;20041;-84
2021/09/25 00:03:02;;;;;;;10.52;6.32;;;409.60;2278.40;;;;;;5016773;28;20125;-86
2021/09/25 00:05:31;;;;;;;11.35;7.32;;;409.60;2278.40;;;;;;5017275;28;20022;-82
2021/09/25 00:08:22;;;;;;;19.65;7.63;;;409.60;2304.00;;;;;;5020033;28;20032;-85
2021/09/25 00:10:48;;;;;;;9.25;5.68;;;409.60;2278.40;;;;;;5003549;28;20093;-82
2021/09/25 00:13:13;;;;;;;7.70;5.35;;;409.60;2278.40;;;;;;4963499;28;20038;-85
2021/09/25 00:15:39;;;;;;;10.60;6.47;;;409.60;2278.40;;;;;;4979926;28;20034;-85
2021/09/25 00:18:06;;;;;;;9.55;5.60;;;384.90;2252.80;;;;;;4979415;28;20398;-82
2021/09/25 00:20:33;;;;;;;11.15;5.75;;;384.90;2252.80;;;;;;4995846;28;20034;-86
2021/09/25 00:22:59;;;;;;;13.82;6.93;;;384.90;2252.80;;;;;;4979109;28;20048;-88
2021/09/25 00:25:25;;;;;;;12.65;6.60;;;384.80;2278.40;;;;;;4980120;28;20121;-87
2021/09/25 00:27:51;;;;;;;13.32;7.43;;;384.80;2278.40;;;;;;4979158;28;20045;-82
2021/09/25 00:30:17;;;;;;;15.35;7.60;;;384.80;2304.00;;;;;;4976027;28;20034;-81
2021/09/25 00:33:21;;;;;;;12.88;7.22;;;384.70;2304.00;;;;;;4964915;28;20098;-86
2021/09/25 00:35:49;;;;;;;18.10;7.68;;;384.70;2329.60;;;;;;4949284;28;20035;-85
2021/09/25 00:38:15;;;;;;;11.07;6.22;;;384.60;2329.60;;;;;;4976045;28;20046;-87
2021/09/25 00:40:40;;;;;;;10.68;5.95;;;384.50;2329.60;;;;;;4961157;28;20086;-86
2021/09/25 00:43:06;;;;;;;10.40;5.20;;;384.40;2329.60;;;;;;4996047;28;20034;-86
2021/09/25 00:45:32;;;;;;;9.45;5.93;;;384.40;2329.60;;;;;;4996914;28;20026;-89
2021/09/25 00:47:58;;;;;;;9.35;5.13;;;384.40;2329.60;;;;;;4996367;28;20035;-87
2021/09/25 00:50:26;;;;;;;9.63;5.20;;;384.40;2329.60;;;;;;5010977;28;20083;-83
2021/09/25 00:52:53;;;;;;;10.20;5.68;;;384.40;2329.60;;;;;;5012849;28;20050;-88
2021/09/25 00:55:20;;;;;;;11.00;5.93;;;384.40;2329.60;;;;;;4997408;28;20026;-87
2021/09/25 00:57:47;;;;;;;10.75;6.65;;;384.40;2329.60;;;;;;4995894;28;20022;-86
2021/09/25 01:00:13;;;;;;;10.30;5.85;;;384.40;2329.60;;;;;;4995924;28;20050;-88
2021/09/25 01:02:39;;;;;;;13.85;6.57;;;384.40;2329.60;;;;;;4995970;28;20496;-87
2021/09/25 01:05:05;;;;;;;14.10;8.00;;;384.30;2329.60;;;;;;4995768;28;20062;-88
2021/09/25 01:07:31;;;;;;;13.20;7.20;;;384.40;2329.60;;;;;;4995661;28;20129;-87
2021/09/25 01:09:57;;;;;;;18.40;7.22;;;384.40;2329.60;;;;;;5012804;28;20372;-82
2021/09/25 01:12:23;;;;;;;14.57;7.45;;;384.30;2329.60;;;;;;4997051;28;20042;-87
2021/09/25 01:14:49;;;;;;;10.98;6.45;;;384.30;2329.60;;;;;;5007845;28;20431;-87
2021/09/25 01:17:14;;;;;;;12.35;7.40;;;384.30;2329.60;;;;;;5015321;28;20104;-83
2021/09/25 01:19:42;;;;;;;11.93;7.70;;;384.20;2329.60;;;;;;5015454;28;20034;-87
2021/09/25 01:22:08;;;;;;;12.50;6.75;;;384.20;2329.60;;;;;;5015471;28;20454;-83
2021/09/25 01:24:35;;;;;;;13.43;7.15;;;384.20;2329.60;;;;;;5015084;28;20033;-87
2021/09/25 01:27:28;;;;;;;10.82;6.95;;;384.20;2329.60;;;;;;5023374;28;20032;-83
2021/09/25 01:30:00;;;;;;;12.98;7.00;;;384.20;2329.60;;;;;;4994339;28;20121;-83
2021/09/25 01:32:26;;;;;;;12.88;7.68;;;384.20;2329.60;;;;;;4974529;28;20041;-86
2021/09/25 01:34:52;;;;;;;13.18;8.13;;;384.20;2329.60;;;;;;4958671;28;20027;-83
2021/09/25 01:37:17;;;;;;;15.73;7.63;;;384.10;2329.60;;;;;;4958750;28;20042;-83
2021/09/25 01:39:43;;;;;;;14.50;7.57;;;384.20;2329.60;;;;;;4969905;28;20113;-83
2021/09/25 01:42:09;;;;;;;14.77;8.23;;;384.10;2329.60;;;;;;4967398;28;20086;-82
2021/09/25 01:44:34;;;;;;;10.65;6.63;;;384.10;2329.60;;;;;;4997465;28;20078;-87
2021/09/25 01:47:01;;;;;;;14.27;7.82;;;384.10;2329.60;;;;;;4988488;28;20049;-87
2021/09/25 01:49:27;;;;;;;13.50;7.95;;;384.00;2329.60;;;;;;4986446;28;20025;-85
2021/09/25 01:51:53;;;;;;;15.38;8.80;;;384.00;2329.60;;;;;;4980749;28;20042;-82
2021/09/25 01:54:20;;;;;;;11.45;6.78;;;384.00;2329.60;;;;;;4978421;28;20057;-86
2021/09/25 01:56:47;;;;;;;14.50;7.10;;;359.30;2329.60;;;;;;4978571;28;20031;-82
2021/09/25 01:59:13;;;;;;;12.45;6.75;;;359.30;2329.60;;;;;;4977135;28;20097;-82
2021/09/25 02:01:39;;;;;;;10.40;5.43;;;359.30;2329.60;;;;;;4992328;28;20027;-87
2021/09/25 02:04:05;;;;;;;10.27;6.63;;;359.30;2329.60;;;;;;4977582;28;20062;-82
2021/09/25 02:06:31;;;;;;;11.40;6.70;;;359.30;2329.60;;;;;;4977800;28;20069;-82
2021/09/25 02:08:57;;;;;;;9.38;6.18;;;359.30;2329.60;;;;;;4977634;28;20429;-81
2021/09/25 02:11:24;;;;;;;9.38;5.03;;;359.30;2329.60;;;;;;4978016;28;20034;-83
2021/09/25 02:13:50;;;;;;;10.07;5.57;;;359.30;2329.60;;;;;;4996128;28;20124;-89
2021/09/25 02:16:15;;;;;;;10.68;6.22;;;359.30;2329.60;;;;;;5014674;28;20072;-84
2021/09/25 02:18:41;;;;;;;10.00;6.10;;;359.30;2329.60;;;;;;5014268;28;20037;-85
2021/09/25 02:21:08;;;;;;;9.68;5.30;;;359.30;2329.60;;;;;;5017560;28;20403;-83
2021/09/25 02:23:34;;;;;;;10.50;5.45;;;359.20;2329.60;;;;;;5017594;28;20061;-87
2021/09/25 02:26:02;;;;;;;9.07;5.13;;;359.30;2329.60;;;;;;5017601;28;20128;-85
2021/09/25 02:28:28;;;;;;;10.85;5.93;;;359.20;2329.60;;;;;;5035322;28;20037;-83
2021/09/25 02:30:55;;;;;;;8.60;5.30;;;359.20;2329.60;;;;;;5017863;28;20026;-82
2021/09/25 02:33:21;;;;;;;8.95;5.13;;;359.20;2329.60;;;;;;5017688;28;20126;-82
2021/09/25 02:35:47;;;;;;;8.75;5.93;;;359.20;2329.60;;;;;;5035272;28;20029;-86
2021/09/25 02:38:14;;;;;;;10.52;5.85;;;359.20;2329.60;;;;;;5023820;28;20044;-86
2021/09/25 02:40:44;;;;;;;10.82;6.13;;;359.20;2329.60;;;;;;4997552;28;20518;-86
2021/09/25 02:43:10;;;;;;;9.93;5.80;;;359.10;2329.60;;;;;;5017756;28;20034;-89
2021/09/25 02:45:37;;;;;;;10.05;6.13;;;359.10;2329.60;;;;;;5017989;28;20104;-88
2021/09/25 02:48:03;;;;;;;13.43;5.95;;;359.00;2329.60;;;;;;5018251;28;20029;-87
2021/09/25 02:50:29;;;;;;;11.55;6.60;;;359.00;2329.60;;;;;;5017988;28;20029;-87
2021/09/25 02:52:55;;;;;;;9.38;4.90;;;359.00;2329.60;;;;;;5017775;28;20033;-85
2021/09/25 02:55:27;;;;;;;11.05;5.72;;;358.80;2329.60;;;;;;5044785;28;20089;-87
2021/09/25 02:57:53;;;;;;;15.23;5.97;;;358.80;2329.60;;;;;;4971880;28;20520;-85
2021/09/25 03:00:20;;;;;;;10.35;5.53;;;358.80;2329.60;;;;;;5034637;28;20113;-87
2021/09/25 03:02:46;;;;;;;9.38;6.75;;;358.80;2329.60;;;;;;5016691;28;20033;-87
2021/09/25 03:05:12;;;;;;;9.98;5.68;;;358.80;2329.60;;;;;;5017257;28;20032;-86
2021/09/25 03:07:39;;;;;;;6.55;4.70;;;358.80;2329.60;;;;;;5017627;28;20021;-87
2021/09/25 03:10:06;;;;;;;8.63;5.78;;;358.80;2329.60;;;;;;5018130;28;20031;-87
2021/09/25 03:12:32;;;;;;;10.90;5.45;;;358.80;2329.60;;;;;;5030566;28;20569;-86
2021/09/25 03:14:58;;;;;;;8.43;5.07;;;358.80;2329.60;;;;;;5016916;28;20018;-87
2021/09/25 03:17:23;;;;;;;8.73;5.50;;;358.80;2329.60;;;;;;5017237;28;20065;-87
2021/09/25 03:19:49;;;;;;;9.90;6.35;;;358.80;2329.60;;;;;;5027017;28;20033;-86
2021/09/25 03:22:16;;;;;;;10.93;7.53;;;358.80;2329.60;;;;;;5032457;28;20058;-87
2021/09/25 03:24:42;;;;;;;11.98;7.35;;;358.80;2329.60;;;;;;5034007;28;20048;-87
2021/09/25 03:27:08;;;;;;;9.75;7.10;;;358.70;2329.60;;;;;;5023393;28;20116;-82
2021/09/25 03:29:34;;;;;;;9.68;5.85;;;358.70;2329.60;;;;;;5022270;28;20411;-81
2021/09/25 03:32:00;;;;;;;9.25;5.50;;;358.60;2329.60;;;;;;5021248;28;20026;-87
2021/09/25 03:34:25;;;;;;;10.27;6.07;;;358.50;2329.60;;;;;;5040648;28;20150;-87
2021/09/25 03:36:51;;;;;;;8.05;4.90;;;333.70;2329.60;;;;;;5020024;28;20042;-87
2021/09/25 03:39:17;;;;;;;10.75;5.68;;;333.70;2329.60;;;;;;5037978;28;20494;-87
2021/09/25 03:41:43;;;;;;;11.18;5.28;;;333.70;2329.60;;;;;;5020439;28;20029;-87
2021/09/25 03:44:09;;;;;;;9.82;5.45;;;333.60;2329.60;;;;;;5019983;28;20029;-87
2021/09/25 03:46:35;;;;;;;11.93;6.20;;;333.40;2329.60;;;;;;5020452;28;20055;-86
2021/09/25 03:49:01;;;;;;;16.52;7.75;;;333.30;2329.60;;;;;;5020125;28;20029;-86
2021/09/25 03:51:27;;;;;;;12.77;6.70;;;333.20;2329.60;;;;;;5020278;28;20022;-87
2021/09/25 03:53:59;;;;;;;14.75;7.60;;;333.20;2329.60;;;;;;5031869;28;20044;-86
2021/09/25 03:56:25;;;;;;;13.85;6.88;;;333.10;2329.60;;;;;;5041792;28;20053;-87
2021/09/25 03:58:51;;;;;;;12.57;6.75;;;333.10;2329.60;;;;;;5037140;28;20454;-87
2021/09/25 04:01:18;;;;;;;13.48;6.63;;;333.00;2329.60;;;;;;5019947;28;20022;-87
2021/09/25 04:03:44;;;;;;;12.02;7.22;;;333.00;2329.60;;;;;;5019923;28;20040;-87
2021/09/25 04:06:10;;;;;;;15.18;7.32;;;333.00;2329.60;;;;;;5019661;28;20108;-86
2021/09/25 04:08:36;;;;;;;10.57;6.68;;;332.90;2329.60;;;;;;5020045;28;20478;-87
2021/09/25 04:11:02;;;;;;;17.00;5.75;;;332.90;2329.60;;;;;;5019743;28;20038;-87
2021/09/25 04:13:27;;;;;;;14.05;6.55;;;332.90;2329.60;;;;;;5019453;28;20036;-86
2021/09/25 04:15:53;;;;;;;15.05;7.22;;;332.90;2329.60;;;;;;5036224;28;20035;-86
2021/09/25 04:18:27;;;;;;;14.98;7.45;;;332.90;2329.60;;;;;;5039929;28;20044;-87
2021/09/25 04:20:52;;;;;;;17.77;7.55;;;308.10;2304.00;;;;;;5043883;28;20132;-87
2021/09/25 04:23:18;;;;;;;14.38;7.18;;;308.10;2304.00;;;;;;5019751;28;20150;-87
2021/09/25 04:25:44;;;;;;;16.80;7.82;;;308.10;2304.00;;;;;;5019652;28;20083;-87
2021/09/25 04:28:09;;;;;;;16.20;8.75;;;307.90;2304.00;;;;;;5019609;28;20479;-86
2021/09/25 04:30:37;;;;;;;17.67;7.47;;;307.90;2304.00;;;;;;5036967;28;20121;-86
2021/09/25 04:33:05;;;;;;;19.80;7.30;;;307.80;2304.00;;;;;;5019472;28;20036;-87
2021/09/25 04:35:30;;;;;;;16.48;8.73;;;307.80;2304.00;;;;;;5037083;28;20022;-86
2021/09/25 04:38:30;;;;;;;17.60;9.30;;;307.90;2304.00;;;;;;5031504;28;20030;-81
2021/09/25 04:40:56;;;;;;;17.58;9.38;;;307.80;2304.00;;;;;;5039094;28;20033;-82
2021/09/25 04:43:22;;;;;;;17.30;9.05;;;307.80;2304.00;;;;;;5017678;28;20442;-82
2021/09/25 04:45:47;;;;;;;14.25;9.00;;;307.90;2304.00;;;;;;5018720;28;20036;-81
2021/09/25 04:48:13;;;;;;;18.02;8.40;;;308.00;2304.00;;;;;;5018581;28;20026;-83
2021/09/25 04:50:39;;;;;;;17.95;9.02;;;308.10;2304.00;;;;;;5018519;28;20025;-81
2021/09/25 04:53:08;;;;;;;19.65;9.00;;;308.10;2304.00;;;;;;5018481;28;20038;-82
2021/09/25 04:55:35;;;;;;;14.52;7.65;;;332.80;2329.60;;;;;;5018279;28;20021;-84
2021/09/25 04:58:02;;;;;;;18.25;8.60;;;332.90;2329.60;;;;;;5018027;28;20029;-82
2021/09/25 05:00:27;;;;;;;24.52;11.30;;;332.90;2329.60;;;;;;5018865;28;20029;-82
2021/09/25 05:02:53;;;;;;;13.43;7.85;;;332.90;2329.60;;;;;;5035585;28;20025;-81
2021/09/25 05:05:19;;;;;;;16.15;8.88;;;333.00;2329.60;;;;;;5018308;28;20037;-85
2021/09/25 05:07:44;;;;;;;17.33;8.80;;;333.10;2329.60;;;;;;5018113;28;20579;-85
2021/09/25 05:10:10;;;;;;;23.60;8.90;;;333.10;2329.60;;;;;;5018067;28;20036;-82
2021/09/25 05:12:36;;;;;;;15.20;8.10;;;333.20;2329.60;;;;;;5017617;28;20072;-83
2021/09/25 05:15:02;;;;;;;11.73;7.95;;;333.20;2329.60;;;;;;5017645;28;20045;-81
2021/09/25 05:17:29;;;;;;;14.98;7.55;;;333.30;2329.60;;;;;;5035506;28;20029;-82
2021/09/25 05:19:54;;;;;;;10.60;6.38;;;333.30;2329.60;;;;;;5018382;28;20129;-83
2021/09/25 05:22:26;;;;;;;13.18;7.90;;;333.20;2329.60;;;;;;5038287;28;20038;-85
2021/09/25 05:24:52;;;;;;;13.55;8.07;;;333.30;2329.60;;;;;;5005883;28;20064;-85
2021/09/25 05:27:17;;;;;;;15.10;8.32;;;333.20;2329.60;;;;;;5017659;28;20061;-84
2021/09/25 05:29:43;;;;;;;17.10;8.63;;;333.20;2329.60;;;;;;5035184;28;20387;-81
2021/09/25 05:32:09;;;;;;;14.25;10.02;;;333.20;2329.60;;;;;;5017884;28;20029;-83
2021/09/25 05:34:35;;;;;;;27.73;15.32;;;333.30;2329.60;;;;;;5018156;28;20028;-82
2021/09/25 05:37:01;;;;;;;26.33;12.18;;;333.30;2329.60;;;;;;5017685;28;20487;-83
2021/09/25 05:39:26;;;;;;;20.05;10.82;;;333.40;2329.60;;;;;;5027339;28;20111;-82
2021/09/25 05:41:52;;;;;;;22.88;10.68;;;333.50;2329.60;;;;;;5017861;28;20088;-84
2021/09/25 05:44:18;;;;;;;24.83;15.35;;;333.50;2329.60;;;;;;5017006;28;20565;-82
2021/09/25 05:46:43;;;;;;;22.08;13.85;;;333.60;2329.60;;;;;;5017472;28;20390;-84
2021/09/25 05:49:09;;;;;;;22.88;13.25;;;333.60;2329.60;;;;;;5017842;28;20029;-82
2021/09/25 05:51:35;;;;;;;20.30;12.15;;;333.70;2329.60;;;;;;5035549;28;20057;-82
2021/09/25 05:54:01;;;;;;;20.17;10.35;;;358.40;2329.60;;;;;;5018569;28;20021;-83
2021/09/25 05:56:27;;;;;;;15.27;9.82;;;358.40;2329.60;;;;;;5035633;28;20036;-83
2021/09/25 05:58:52;;;;;;;11.45;7.78;;;358.50;2329.60;;;;;;5019418;28;20392;-84
2021/09/25 06:01:18;;;;;;;14.43;8.23;;;358.60;2329.60;;;;;;5018580;28;20078;-83
2021/09/25 06:03:44;;;;;;;14.48;7.97;;;358.60;2329.60;;;;;;5023386;28;20029;-83
2021/09/25 06:06:09;;;;;;;14.95;7.63;;;358.70;2329.60;;;;;;5022366;28;20030;-85
2021/09/25 06:08:35;;;;;;;18.55;8.60;;;358.80;2329.60;;;;;;5022468;28;20499;-84
2021/09/25 06:11:01;;;;;;;12.70;6.88;;;358.80;2329.60;;;;;;5017922;28;20035;-85
2021/09/25 06:13:27;;;;;;;13.77;8.40;;;358.90;2329.60;;;;;;5018373;28;20017;-83
2021/09/25 06:15:52;;;;;;;13.23;7.70;;;358.90;2329.60;;;;;;5036627;28;20025;-86
2021/09/25 06:18:23;;;;;;;11.05;7.75;;;359.00;2329.60;;;;;;5047545;28;20045;-85
2021/09/25 06:20:51;;;;;;;15.55;8.93;;;359.10;2329.60;;;;;;5050262;28;20018;-85
2021/09/25 06:23:17;;;;;;;16.95;8.60;;;359.20;2329.60;;;;;;5034647;28;20074;-87
2021/09/25 06:25:43;;;;;;;13.05;8.45;;;359.20;2329.60;;;;;;5034601;28;20030;-84
2021/09/25 06:28:12;;;;;;;18.55;7.47;;;359.30;2329.60;;;;;;5026774;28;20029;-82
2021/09/25 06:30:41;;;;;;;14.57;8.50;;;384.00;2329.60;;;;;;5032652;28;20045;-78
2021/09/25 06:33:14;;;;;;;18.23;8.32;;;384.00;2329.60;;;;;;5035485;28;20488;-89
2021/09/25 06:35:43;;;;;;;12.13;7.60;;;384.10;2329.60;;;;;;5035973;28;20046;-89
2021/09/25 06:38:10;;;;;;;16.40;8.10;;;384.10;2329.60;;;;;;5028764;28;20033;-87
2021/09/25 06:40:35;;;;;;;14.23;8.18;;;384.20;2329.60;;;;;;5028245;28;20022;-87
2021/09/25 06:43:03;;;;;;;14.50;7.95;;;384.30;2329.60;;;;;;5025248;28;20021;-88
2021/09/25 06:45:32;;;;;;;12.52;8.15;;;384.30;2329.60;;;;;;5017537;28;20069;-91
2021/09/25 06:47:59;;;;;;;16.70;7.40;;;384.40;2329.60;;;;;;5017710;28;20021;-91
2021/09/25 06:50:25;;;;;;;15.02;9.10;;;384.50;2329.60;;;;;;5015887;28;20049;-91
2021/09/25 06:52:51;;;;;;;14.10;7.47;;;384.50;2329.60;;;;;;5017191;28;20026;-94
2021/09/25 06:55:17;;;;;;;16.85;7.55;;;384.60;2329.60;;;;;;5015593;28;20088;-86
2021/09/25 06:57:42;;;;;;;14.07;7.72;;;384.70;2329.60;;;;;;5014772;28;20041;-84
2021/09/25 07:00:10;;;;;;;13.95;8.15;;;384.80;2329.60;;;;;;5017394;28;20026;-91
2021/09/25 07:02:40;;;;;;;12.00;8.50;;;384.90;2329.60;;;;;;5014926;28;20041;-90
2021/09/25 07:05:08;;;;;;;19.83;9.52;;;409.60;2355.20;;;;;;5015258;28;20033;-85
2021/09/25 07:07:34;;;;;;;13.20;7.25;;;409.70;2355.20;;;;;;5027101;28;20030;-89
2021/09/25 07:10:01;;;;;;;12.70;7.53;;;409.90;2355.20;;;;;;5034016;28;20030;-91
2021/09/25 07:12:37;;;;;;;14.38;7.72;;;410.00;2355.20;;;;;;5032434;28;20036;-81
2021/09/25 07:15:03;;;;;;;18.13;8.98;;;410.10;2355.20;;;;;;5019098;28;20040;-87
2021/09/25 07:17:29;;;;;;;14.50;8.00;;;410.20;2355.20;;;;;;5031089;28;20018;-82
2021/09/25 07:20:07;;;;;;;17.33;7.63;;;410.30;2355.20;;;;;;5030308;28;20038;-88
2021/09/25 07:22:43;;;;;;;10.32;7.13;;;410.50;2355.20;;;;;;5033918;28;20052;-81
2021/09/25 07:25:11;;;;;;;13.43;9.38;;;435.30;2355.20;;;;;;5033781;28;20025;-81
2021/09/25 07:27:55;;;;;;;12.00;7.68;;;435.40;2355.20;;;;;;5032718;28;20073;-79
2021/09/25 07:30:23;;;;;;;14.90;7.10;;;435.60;2329.60;;;;;;5033028;28;20030;-81
2021/09/25 07:32:55;;;;;;;17.90;8.95;;;435.60;2304.00;;;;;;5014990;28;20034;-83
2021/09/25 07:35:44;;;;;;;16.27;9.10;;;435.80;2304.00;;;;;;5031994;28;20120;-84
2021/09/25 07:38:11;;;;;;;15.00;8.05;;;435.90;2355.20;;;;;;4988599;28;20085;-85
2021/09/25 07:40:39;;;;;;;16.15;8.23;;;436.10;2329.60;;;;;;4985861;28;20030;-85
2021/09/25 07:43:05;;;;;;;13.70;7.43;;;460.80;2252.80;;;;;;4984378;28;20187;-89
2021/09/25 07:45:32;;;;;;;14.48;8.55;;;460.90;2278.40;;;;;;4991728;28;20129;-87
2021/09/25 07:47:58;;;;;;;11.90;7.13;;;461.10;2252.80;;;;;;4992614;28;20031;-83
2021/09/25 07:50:25;;;;;;;15.77;8.35;;;461.30;2252.80;;;;;;4980956;28;20029;-82
2021/09/25 07:52:55;;;;;;;14.32;7.03;;;461.40;2176.00;;;;;;4981268;28;20073;-82
2021/09/25 07:55:21;;;;;;;14.73;8.15;;;461.50;2176.00;;;;;;4988223;28;20029;-89
2021/09/25 07:57:58;;;;;;;13.70;7.20;;;461.70;2150.40;;;;;;4997597;28;20031;-83
2021/09/25 08:00:23;;;;;;;11.40;6.28;;;486.50;2099.20;;;;;;4999410;28;20065;-81
2021/09/25 08:02:49;;;;;;;10.57;6.22;;;486.60;2022.40;;;;;;4981838;28;20034;-87
2021/09/25 08:05:15;;;;;;;13.23;7.35;;;486.70;1996.80;;;;;;4995713;28;20091;-85
2021/09/25 08:07:41;;;;;;;14.70;6.63;;;486.80;1996.80;;;;;;4998372;28;20027;-80
2021/09/25 08:10:09;;;;;;;19.05;7.00;;;486.90;1971.20;;;;;;5020145;28;20509;-81
2021/09/25 08:12:35;;;;;;;14.68;6.28;;;487.00;1945.60;;;;;;5018323;28;20026;-86
2021/09/25 08:15:01;;;;;;;10.55;5.78;;;487.10;1945.60;;;;;;5011724;28;20056;-85
2021/09/25 08:17:27;;;;;;;10.02;6.10;;;487.30;1971.20;;;;;;5015581;28;20515;-79
2021/09/25 08:19:52;;;;;;;12.75;7.18;;;512.00;1945.60;;;;;;5015822;28;20054;-79
2021/09/25 08:22:18;;;;;;;17.02;6.45;;;512.10;1894.40;;;;;;5015272;28;20046;-79
2021/09/25 08:24:44;;;;;;;14.23;7.00;;;512.20;1868.80;;;;;;5015027;28;20116;-78
2021/09/25 08:27:11;;;;;;;13.40;6.88;;;512.30;1894.40;;;;;;5016325;28;20116;-78
2021/09/25 08:29:37;;;;;;;14.07;7.82;;;512.40;1894.40;;;;;;5014728;28;20025;-74
2021/09/25 08:32:03;;;;;;;10.05;5.60;;;512.60;1868.80;;;;;;5016102;28;20499;-77
2021/09/25 08:34:29;;;;;;;9.82;5.68;;;512.70;1792.00;;;;;;5015998;28;20029;-77
2021/09/25 08:36:55;;;;;;;8.75;5.70;;;512.80;1817.60;;;;;;5015672;28;20025;-76
2021/09/25 08:39:21;;;;;;;7.50;4.95;;;512.90;1843.20;;;;;;5016365;28;20030;-77
2021/09/25 08:41:49;;;;;;;11.70;6.78;;;537.70;1843.20;;;;;;5014799;28;20037;-76
2021/09/25 08:44:15;;;;;;;8.98;5.93;;;537.90;1817.60;;;;;;5014461;28;20034;-77
2021/09/25 08:46:41;;;;;;;10.35;5.18;;;538.00;1792.00;;;;;;5016085;28;20021;-77
2021/09/25 08:49:07;;;;;;;11.75;5.28;;;538.20;1766.40;;;;;;5016701;28;20021;-76
2021/09/25 08:51:35;;;;;;;9.77;5.43;;;538.30;1843.20;;;;;;5016512;28;20109;-75
2021/09/25 08:54:01;;;;;;;12.45;5.93;;;538.50;1792.00;;;;;;5017477;28;20483;-77
2021/09/25 08:56:29;;;;;;;10.40;5.30;;;563.20;1740.80;;;;;;5018808;28;20101;-78
2021/09/25 08:58:58;;;;;;;9.70;4.70;;;563.40;1766.40;;;;;;5015911;28;20030;-78
2021/09/25 09:01:28;;;;;;;8.48;5.25;;;563.50;1740.80;;;;;;5018745;28;20026;-77
2021/09/25 09:03:54;;;;;;;10.15;5.80;;;563.50;1715.20;;;;;;5019521;28;20025;-79
2021/09/25 09:06:27;;;;;;;9.05;4.97;;;563.70;1740.80;;;;;;5020554;28;20022;-75
2021/09/25 09:08:55;;;;;;;8.95;6.18;;;563.90;1689.60;;;;;;5020896;28;20044;-77
2021/09/25 09:11:23;;;;;;;7.07;4.63;;;564.00;1689.60;;;;;;5018387;28;20025;-77
2021/09/25 09:14:00;;;;;;;7.85;5.78;;;564.10;1638.40;;;;;;5017565;28;20022;-75
2021/09/25 09:16:27;;;;;;;9.70;5.22;;;588.90;1689.60;;;;;;5022248;28;20021;-78
2021/09/25 09:18:53;;;;;;;11.10;5.85;;;589.10;1664.00;;;;;;5024751;28;20092;-77
2021/09/25 09:21:21;;;;;;;7.65;4.97;;;589.30;1664.00;;;;;;5022161;28;20029;-76
2021/09/25 09:23:53;;;;;;;8.80;5.00;;;589.40;1612.80;;;;;;5023085;28;20033;-77
2021/09/25 09:26:27;;;;;;;8.10;4.78;;;589.60;1612.80;;;;;;5019999;28;20036;-77
2021/09/25 09:28:55;;;;;;;7.65;4.88;;;589.70;1612.80;;;;;;5019555;28;20045;-78
2021/09/25 09:31:22;;;;;;;9.13;5.25;;;614.40;1638.40;;;;;;5042771;28;20017;-78
2021/09/25 09:33:56;;;;;;;13.80;6.35;;;614.70;1612.80;;;;;;5041612;28;20025;-77
2021/09/25 09:36:25;;;;;;;10.23;4.88;;;614.70;1536.00;;;;;;5038209;28;20044;-79
2021/09/25 09:39:29;;;;;;;10.93;5.72;;;614.90;1587.20;;;;;;5024489;28;20052;-78
2021/09/25 09:41:55;;;;;;;9.25;4.97;;;615.20;1536.00;;;;;;4961875;28;20429;-77
2021/09/25 09:44:24;;;;;;;7.60;4.50;;;615.30;1484.80;;;;;;4972243;28;20413;-78
2021/09/25 09:46:55;;;;;;;11.18;5.45;;;640.00;1510.40;;;;;;4957435;28;20034;-78
2021/09/25 09:49:28;;;;;;;9.38;5.63;;;640.20;1510.40;;;;;;4957540;28;20122;-77
2021/09/25 09:52:04;;;;;;;11.10;5.65;;;640.40;1484.80;;;;;;4975369;28;20019;-85
2021/09/25 09:54:37;;;;;;;9.52;5.10;;;640.50;1510.40;;;;;;4959691;28;20030;-85
2021/09/25 09:57:10;;;;;;;6.88;5.38;;;640.80;1484.80;;;;;;4959535;28;20035;-83
2021/09/25 09:59:38;;;;;;;10.38;5.18;;;640.90;1510.40;;;;;;4974876;28;20035;-82
2021/09/25 10:02:05;;;;;;;7.97;5.50;;;665.70;1459.20;;;;;;4960150;28;20033;-87
2021/09/25 10:04:32;;;;;;;9.05;5.32;;;665.80;1484.80;;;;;;4977127;28;20054;-82
2021/09/25 10:06:59;;;;;;;11.02;4.68;;;666.00;1510.40;;;;;;4959742;28;20090;-86
2021/09/25 10:09:30;;;;;;;8.95;5.35;;;666.10;1408.00;;;;;;4973704;28;20039;-82
2021/09/25 10:12:02;;;;;;;7.35;4.38;;;666.40;1408.00;;;;;;4957830;28;20052;-79
2021/09/25 10:14:32;;;;;;;5.47;3.85;;;666.40;1356.80;;;;;;4973152;28;20050;-84
2021/09/25 10:17:01;;;;;;;6.75;5.00;;;666.50;1356.80;;;;;;5013852;28;20084;-77
2021/09/25 10:19:32;;;;;;;8.10;4.97;;;691.40;1382.40;;;;;;5015380;28;20120;-79
2021/09/25 10:22:29;;;;;;;9.98;5.15;;;691.50;1408.00;;;;;;5014765;28;20377;-80
2021/09/25 10:24:58;;;;;;;11.50;5.10;;;691.60;1382.40;;;;;;5015081;28;20022;-79
2021/09/25 10:27:31;;;;;;;7.72;4.20;;;691.80;1331.20;;;;;;5015822;28;20037;-79
2021/09/25 10:30:07;;;;;;;7.85;5.03;;;691.90;1356.80;;;;;;5018836;28;20049;-83
2021/09/25 10:32:51;;;;;;;7.25;4.50;;;692.00;1356.80;;;;;;5020941;28;20068;-86
2021/09/25 10:35:19;;;;;;;6.85;4.22;;;716.80;1382.40;;;;;;5012862;28;20026;-84
2021/09/25 10:37:59;;;;;;;16.45;6.13;;;716.90;1356.80;;;;;;5010141;28;20022;-79
2021/09/25 10:40:31;;;;;;;7.82;4.13;;;717.00;1305.60;;;;;;5014210;28;20109;-78
2021/09/25 10:43:01;;;;;;;7.32;4.82;;;717.20;1305.60;;;;;;5021131;28;20032;-79
2021/09/25 10:45:33;;;;;;;5.72;4.10;;;717.20;1280.00;;;;;;5035950;28;20038;-76
2021/09/25 10:48:13;;;;;;;7.10;3.70;;;717.50;1254.40;;;;;;5039828;28;20024;-76
2021/09/25 10:50:50;;;;;;;6.00;3.97;;;717.50;1228.80;;;;;;5037425;28;20057;-76
2021/09/25 10:53:19;;;;;;;6.78;3.83;;;717.50;1280.00;;;;;;5038737;28;20024;-77
2021/09/25 10:55:47;;;;;;;8.45;3.75;;;717.60;1254.40;;;;;;5039736;28;20025;-75
2021/09/25 10:58:20;;;;;;;6.22;3.60;;;717.60;1254.40;;;;;;5042561;28;20033;-78
2021/09/25 11:01:03;;;;;;;5.35;3.47;;;717.40;1228.80;;;;;;5032037;28;20018;-77
2021/09/25 11:03:41;;;;;;;5.90;3.00;;;717.40;1228.80;;;;;;5044285;28;20052;-81
2021/09/25 11:06:08;;;;;;;6.22;4.07;;;717.40;1254.40;;;;;;5020087;28;20437;-76
2021/09/25 11:08:36;;;;;;;5.85;4.53;;;717.60;1254.40;;;;;;5036803;28;20486;-76
2021/09/25 11:11:12;;;;;;;4.68;3.13;;;717.70;1254.40;;;;;;5035153;28;20055;-77
2021/09/25 11:14:02;;;;;;;5.22;3.47;;;742.50;1228.80;;;;;;5037685;28;20033;-76
2021/09/25 11:16:48;;;;;;;4.70;3.17;;;742.50;1280.00;;;;;;5032885;28;20032;-84
2021/09/25 11:19:26;;;;;;;4.72;3.45;;;742.60;1228.80;;;;;;5032141;28;20087;-78
2021/09/25 11:22:00;;;;;;;5.40;3.67;;;742.80;1228.80;;;;;;5031813;28;20491;-76
2021/09/25 11:24:28;;;;;;;4.38;3.13;;;742.90;1254.40;;;;;;5031653;28;20022;-79
2021/09/25 11:26:54;;;;;;;4.35;2.90;;;743.00;1203.20;;;;;;5032826;28;20037;-78
2021/09/25 11:29:20;;;;;;;4.97;3.55;;;743.10;1177.60;;;;;;5033071;28;20029;-83
2021/09/25 11:31:49;;;;;;;4.72;3.13;;;743.10;1177.60;;;;;;5034909;28;20101;-76
2021/09/25 11:34:27;;;;;;;4.40;3.00;;;743.10;1177.60;;;;;;5031681;28;20025;-77
2021/09/25 11:36:59;;;;;;;5.72;3.10;;;743.20;1152.00;;;;;;5032962;28;20762;-79
2021/09/25 11:39:43;;;;;;;5.40;3.70;;;743.00;1152.00;;;;;;5032217;28;20041;-81
2021/09/25 11:42:21;;;;;;;4.28;3.10;;;742.90;1152.00;;;;;;5032710;28;20041;-76
2021/09/25 11:45:06;;;;;;;5.40;3.55;;;743.10;1177.60;;;;;;5032396;28;20491;-83
2021/09/25 11:47:40;;;;;;;4.38;2.70;;;743.10;1126.40;;;;;;5033402;28;20087;-82
2021/09/25 11:50:17;;;;;;;3.72;2.65;;;743.00;1126.40;;;;;;5032221;28;20033;-79
2021/09/25 11:52:47;;;;;;;5.07;3.03;;;743.00;1126.40;;;;;;5036187;28;20076;-79
2021/09/25 11:55:14;;;;;;;5.30;3.53;;;743.10;1152.00;;;;;;5036450;28;20022;-77
2021/09/25 11:57:51;;;;;;;4.78;2.75;;;743.30;1152.00;;;;;;5036446;28;20018;-78
2021/09/25 12:00:19;;;;;;;4.18;2.72;;;743.30;1126.40;;;;;;5036679;28;20017;-77
2021/09/25 12:02:47;;;;;;;6.57;3.28;;;743.20;1152.00;;;;;;5036537;28;20033;-80
2021/09/25 12:05:46;;;;;;;5.38;3.13;;;743.30;1152.00;;;;;;5038907;28;20047;-78
2021/09/25 12:08:21;;;;;;;8.27;3.38;;;768.10;1100.80;;;;;;4956362;29;20445;-80
2021/09/25 12:10:59;;;;;;;3.60;2.90;;;768.20;1126.40;;;;;;4956793;29;20525;-77
2021/09/25 12:13:30;;;;;;;3.67;2.75;;;768.20;1152.00;;;;;;4954292;29;20087;-77
2021/09/25 12:16:00;;;;;;;4.85;3.45;;;768.40;1100.80;;;;;;4955591;29;20038;-79
2021/09/25 12:18:28;;;;;;;3.72;3.15;;;768.60;1075.20;;;;;;4954317;29;20130;-79